sensor_id;sensor_type;location;lat;lon;timestamp;temperature;humidity
40454;DHT22;26160;51.858;4.398;2024-03-29T00:01:34;10.10;1.00
40454;DHT22;26160;51.858;4.398;2024-03-29T00:04:00;10.10;1.00
40454;DHT22;26160;51.858;4.398;2024-03-29T00:06:26;10.10;1.00
40454;DHT22;26160;51.858;4.398;2024-03-29T00:08:52;10.10;1.00
40454;DHT22;26160;51.858;4.398;2024-03-29T00:11:18;10.10;1.00
40454;DHT22;26160;51.858;4.398;2024-03-29T00:13:44;10.20;1.00
40454;DHT22;26160;51.858;4.398;2024-03-29T00:16:11;10.10;99.90
40454;DHT22;26160;51.858;4.398;2024-03-29T00:18:37;10.20;99.90
40454;DHT22;26160;51.858;4.398;2024-03-29T00:21:04;10.20;99.90
40454;DHT22;26160;51.858;4.398;2024-03-29T00:23:30;10.10;99.90
40454;DHT22;26160;51.858;4.398;2024-03-29T00:25:56;10.20;99.90
40454;DHT22;26160;51.858;4.398;2024-03-29T00:28:24;10.20;99.90
40454;DHT22;26160;51.858;4.398;2024-03-29T00:30:50;10.20;99.90
40454;DHT22;26160;51.858;4.398;2024-03-29T00:33:16;10.10;99.90
40454;DHT22;26160;51.858;4.398;2024-03-29T00:35:45;10.10;99.90
40454;DHT22;26160;51.858;4.398;2024-03-29T00:38:11;10.10;99.90
40454;DHT22;26160;51.858;4.398;2024-03-29T00:40:37;10.20;99.90
40454;DHT22;26160;51.858;4.398;2024-03-29T00:43:04;10.20;99.90
40454;DHT22;26160;51.858;4.398;2024-03-29T00:45:30;10.20;99.90
40454;DHT22;26160;51.858;4.398;2024-03-29T00:47:56;10.20;1.00
40454;DHT22;26160;51.858;4.398;2024-03-29T00:50:22;10.10;99.90
40454;DHT22;26160;51.858;4.398;2024-03-29T00:52:48;10.10;99.90
40454;DHT22;26160;51.858;4.398;2024-03-29T00:55:14;10.20;99.90
40454;DHT22;26160;51.858;4.398;2024-03-29T00:57:41;10.10;1.00
40454;DHT22;26160;51.858;4.398;2024-03-29T01:00:07;10.10;1.00
40454;DHT22;26160;51.858;4.398;2024-03-29T01:02:35;10.10;1.00
40454;DHT22;26160;51.858;4.398;2024-03-29T01:05:02;10.10;1.00
40454;DHT22;26160;51.858;4.398;2024-03-29T01:07:28;10.20;99.90
40454;DHT22;26160;51.858;4.398;2024-03-29T01:09:55;10.20;99.90
40454;DHT22;26160;51.858;4.398;2024-03-29T01:12:21;10.20;99.90
40454;DHT22;26160;51.858;4.398;2024-03-29T01:14:47;10.10;99.90
40454;DHT22;26160;51.858;4.398;2024-03-29T01:17:13;10.00;1.00
40454;DHT22;26160;51.858;4.398;2024-03-29T01:19:39;10.10;1.00
40454;DHT22;26160;51.858;4.398;2024-03-29T01:22:05;10.10;1.00
40454;DHT22;26160;51.858;4.398;2024-03-29T01:24:31;10.10;99.90
40454;DHT22;26160;51.858;4.398;2024-03-29T01:26:57;10.10;99.90
40454;DHT22;26160;51.858;4.398;2024-03-29T01:29:24;10.10;99.90
40454;DHT22;26160;51.858;4.398;2024-03-29T01:31:51;10.10;1.00
40454;DHT22;26160;51.858;4.398;2024-03-29T01:34:17;10.10;1.00
40454;DHT22;26160;51.858;4.398;2024-03-29T01:36:43;10.00;1.00
40454;DHT22;26160;51.858;4.398;2024-03-29T01:39:10;10.00;99.90
40454;DHT22;26160;51.858;4.398;2024-03-29T01:41:40;10.10;99.90
40454;DHT22;26160;51.858;4.398;2024-03-29T01:44:06;10.00;99.90
40454;DHT22;26160;51.858;4.398;2024-03-29T01:46:35;10.00;99.90
40454;DHT22;26160;51.858;4.398;2024-03-29T01:49:02;10.00;99.90
40454;DHT22;26160;51.858;4.398;2024-03-29T01:51:29;9.90;99.90
40454;DHT22;26160;51.858;4.398;2024-03-29T01:53:56;9.90;99.90
40454;DHT22;26160;51.858;4.398;2024-03-29T01:56:22;10.00;99.90
40454;DHT22;26160;51.858;4.398;2024-03-29T01:58:50;10.00;99.90
40454;DHT22;26160;51.858;4.398;2024-03-29T02:03:53;10.00;99.90
40454;DHT22;26160;51.858;4.398;2024-03-29T02:06:20;9.90;99.90
40454;DHT22;26160;51.858;4.398;2024-03-29T02:08:49;9.90;99.90
40454;DHT22;26160;51.858;4.398;2024-03-29T02:11:17;10.00;99.90
40454;DHT22;26160;51.858;4.398;2024-03-29T02:13:44;9.90;99.90
40454;DHT22;26160;51.858;4.398;2024-03-29T02:16:11;9.90;99.90
40454;DHT22;26160;51.858;4.398;2024-03-29T02:18:37;9.90;99.90
40454;DHT22;26160;51.858;4.398;2024-03-29T02:21:03;9.90;99.90
40454;DHT22;26160;51.858;4.398;2024-03-29T02:23:30;10.00;99.90
40454;DHT22;26160;51.858;4.398;2024-03-29T02:25:58;10.00;99.90
40454;DHT22;26160;51.858;4.398;2024-03-29T02:28:24;9.90;99.90
40454;DHT22;26160;51.858;4.398;2024-03-29T02:30:51;9.90;99.90
40454;DHT22;26160;51.858;4.398;2024-03-29T02:33:17;10.00;99.90
40454;DHT22;26160;51.858;4.398;2024-03-29T02:35:43;10.00;99.90
40454;DHT22;26160;51.858;4.398;2024-03-29T02:38:09;10.00;99.90
40454;DHT22;26160;51.858;4.398;2024-03-29T02:40:36;10.00;99.90
40454;DHT22;26160;51.858;4.398;2024-03-29T02:43:02;10.10;99.90
40454;DHT22;26160;51.858;4.398;2024-03-29T02:45:28;10.00;99.90
40454;DHT22;26160;51.858;4.398;2024-03-29T02:47:54;10.00;99.90
40454;DHT22;26160;51.858;4.398;2024-03-29T02:50:20;10.00;99.90
40454;DHT22;26160;51.858;4.398;2024-03-29T02:52:46;10.00;99.90
40454;DHT22;26160;51.858;4.398;2024-03-29T02:55:12;10.00;99.90
40454;DHT22;26160;51.858;4.398;2024-03-29T02:57:39;10.10;1.20
40454;DHT22;26160;51.858;4.398;2024-03-29T03:00:06;10.10;6.50
40454;DHT22;26160;51.858;4.398;2024-03-29T03:02:40;10.10;93.40
40454;DHT22;26160;51.858;4.398;2024-03-29T03:05:07;10.00;99.90
40454;DHT22;26160;51.858;4.398;2024-03-29T03:07:34;10.00;99.90
40454;DHT22;26160;51.858;4.398;2024-03-29T03:10:20;10.00;99.90
40454;DHT22;26160;51.858;4.398;2024-03-29T03:13:04;10.00;99.90
40454;DHT22;26160;51.858;4.398;2024-03-29T03:15:31;10.10;99.90
40454;DHT22;26160;51.858;4.398;2024-03-29T03:17:57;10.00;99.90
40454;DHT22;26160;51.858;4.398;2024-03-29T03:20:23;10.00;99.90
40454;DHT22;26160;51.858;4.398;2024-03-29T03:22:53;9.90;99.90
40454;DHT22;26160;51.858;4.398;2024-03-29T03:25:21;10.00;99.90
40454;DHT22;26160;51.858;4.398;2024-03-29T03:27:47;10.10;99.90
40454;DHT22;26160;51.858;4.398;2024-03-29T03:30:14;10.00;99.90
40454;DHT22;26160;51.858;4.398;2024-03-29T03:32:41;10.00;99.90
40454;DHT22;26160;51.858;4.398;2024-03-29T03:35:08;10.00;99.90
40454;DHT22;26160;51.858;4.398;2024-03-29T03:37:34;10.00;99.90
40454;DHT22;26160;51.858;4.398;2024-03-29T03:40:00;10.00;99.90
40454;DHT22;26160;51.858;4.398;2024-03-29T03:42:27;10.00;99.90
40454;DHT22;26160;51.858;4.398;2024-03-29T03:44:53;10.00;99.90
40454;DHT22;26160;51.858;4.398;2024-03-29T03:47:19;10.00;99.90
40454;DHT22;26160;51.858;4.398;2024-03-29T03:49:45;10.00;99.90
40454;DHT22;26160;51.858;4.398;2024-03-29T03:52:11;9.90;99.90
40454;DHT22;26160;51.858;4.398;2024-03-29T03:54:37;9.90;99.90
40454;DHT22;26160;51.858;4.398;2024-03-29T03:57:04;9.90;99.90
40454;DHT22;26160;51.858;4.398;2024-03-29T03:59:30;9.90;99.90
40454;DHT22;26160;51.858;4.398;2024-03-29T04:01:56;9.90;99.90
40454;DHT22;26160;51.858;4.398;2024-03-29T04:04:23;9.90;99.90
40454;DHT22;26160;51.858;4.398;2024-03-29T04:06:49;9.90;99.90
40454;DHT22;26160;51.858;4.398;2024-03-29T04:09:15;9.90;99.90
40454;DHT22;26160;51.858;4.398;2024-03-29T04:11:42;9.80;99.90
40454;DHT22;26160;51.858;4.398;2024-03-29T04:14:09;9.80;99.90
40454;DHT22;26160;51.858;4.398;2024-03-29T04:16:35;9.80;99.90
40454;DHT22;26160;51.858;4.398;2024-03-29T04:19:01;9.80;99.90
40454;DHT22;26160;51.858;4.398;2024-03-29T04:21:27;9.80;1.00
40454;DHT22;26160;51.858;4.398;2024-03-29T04:23:54;9.80;1.00
40454;DHT22;26160;51.858;4.398;2024-03-29T04:26:20;9.70;1.00
40454;DHT22;26160;51.858;4.398;2024-03-29T04:28:46;9.70;1.00
40454;DHT22;26160;51.858;4.398;2024-03-29T04:31:12;9.70;1.00
40454;DHT22;26160;51.858;4.398;2024-03-29T04:33:38;9.70;1.00
40454;DHT22;26160;51.858;4.398;2024-03-29T04:36:04;9.60;1.00
40454;DHT22;26160;51.858;4.398;2024-03-29T04:38:31;9.60;1.00
40454;DHT22;26160;51.858;4.398;2024-03-29T04:40:58;9.60;1.00
40454;DHT22;26160;51.858;4.398;2024-03-29T04:43:25;9.50;1.00
40454;DHT22;26160;51.858;4.398;2024-03-29T04:46:02;9.50;1.00
40454;DHT22;26160;51.858;4.398;2024-03-29T04:48:31;9.40;1.00
40454;DHT22;26160;51.858;4.398;2024-03-29T04:50:58;9.40;1.00
40454;DHT22;26160;51.858;4.398;2024-03-29T04:53:24;9.30;1.00
40454;DHT22;26160;51.858;4.398;2024-03-29T04:55:54;9.30;1.00
40454;DHT22;26160;51.858;4.398;2024-03-29T04:58:22;9.20;1.00
40454;DHT22;26160;51.858;4.398;2024-03-29T05:00:49;9.20;1.00
40454;DHT22;26160;51.858;4.398;2024-03-29T05:03:19;9.20;1.00
40454;DHT22;26160;51.858;4.398;2024-03-29T05:05:45;9.10;1.00
40454;DHT22;26160;51.858;4.398;2024-03-29T05:08:12;9.10;1.00
40454;DHT22;26160;51.858;4.398;2024-03-29T05:10:42;9.00;1.00
40454;DHT22;26160;51.858;4.398;2024-03-29T05:13:09;9.00;1.00
40454;DHT22;26160;51.858;4.398;2024-03-29T05:15:35;8.90;1.00
40454;DHT22;26160;51.858;4.398;2024-03-29T05:18:01;8.90;1.00
40454;DHT22;26160;51.858;4.398;2024-03-29T05:20:27;8.80;1.00
40454;DHT22;26160;51.858;4.398;2024-03-29T05:22:53;8.70;1.00
40454;DHT22;26160;51.858;4.398;2024-03-29T05:25:19;8.60;1.00
40454;DHT22;26160;51.858;4.398;2024-03-29T05:27:45;8.60;1.00
40454;DHT22;26160;51.858;4.398;2024-03-29T05:30:12;8.60;1.00
40454;DHT22;26160;51.858;4.398;2024-03-29T05:32:39;8.50;1.00
40454;DHT22;26160;51.858;4.398;2024-03-29T05:35:05;8.50;1.00
40454;DHT22;26160;51.858;4.398;2024-03-29T05:37:32;8.50;1.00
40454;DHT22;26160;51.858;4.398;2024-03-29T05:39:58;8.50;1.00
40454;DHT22;26160;51.858;4.398;2024-03-29T05:42:31;8.50;1.00
40454;DHT22;26160;51.858;4.398;2024-03-29T05:44:57;8.50;1.00
40454;DHT22;26160;51.858;4.398;2024-03-29T05:47:23;8.50;1.00
40454;DHT22;26160;51.858;4.398;2024-03-29T05:49:50;8.50;1.00
40454;DHT22;26160;51.858;4.398;2024-03-29T05:52:16;8.50;2.20
40454;DHT22;26160;51.858;4.398;2024-03-29T05:54:44;8.50;5.70
40454;DHT22;26160;51.858;4.398;2024-03-29T05:57:11;8.50;8.70
40454;DHT22;26160;51.858;4.398;2024-03-29T05:59:38;8.50;13.40
40454;DHT22;26160;51.858;4.398;2024-03-29T06:02:04;8.40;14.90
40454;DHT22;26160;51.858;4.398;2024-03-29T06:04:31;8.40;19.70
40454;DHT22;26160;51.858;4.398;2024-03-29T06:07:02;8.40;24.60
40454;DHT22;26160;51.858;4.398;2024-03-29T06:09:29;8.40;27.90
40454;DHT22;26160;51.858;4.398;2024-03-29T06:11:57;8.40;32.60
40454;DHT22;26160;51.858;4.398;2024-03-29T06:14:23;8.40;37.60
40454;DHT22;26160;51.858;4.398;2024-03-29T06:17:08;8.40;43.10
40454;DHT22;26160;51.858;4.398;2024-03-29T06:19:55;8.40;47.10
40454;DHT22;26160;51.858;4.398;2024-03-29T06:22:23;8.40;53.50
40454;DHT22;26160;51.858;4.398;2024-03-29T06:24:53;8.40;57.60
40454;DHT22;26160;51.858;4.398;2024-03-29T06:27:20;8.40;58.70
40454;DHT22;26160;51.858;4.398;2024-03-29T06:29:49;8.30;65.90
40454;DHT22;26160;51.858;4.398;2024-03-29T06:32:15;8.40;67.40
40454;DHT22;26160;51.858;4.398;2024-03-29T06:34:47;8.30;70.30
40454;DHT22;26160;51.858;4.398;2024-03-29T06:37:14;8.40;72.90
40454;DHT22;26160;51.858;4.398;2024-03-29T06:39:40;8.40;76.10
40454;DHT22;26160;51.858;4.398;2024-03-29T06:42:07;8.40;72.60
40454;DHT22;26160;51.858;4.398;2024-03-29T06:44:34;8.40;70.80
40454;DHT22;26160;51.858;4.398;2024-03-29T06:47:00;8.40;70.60
40454;DHT22;26160;51.858;4.398;2024-03-29T06:49:26;8.50;72.30
40454;DHT22;26160;51.858;4.398;2024-03-29T06:51:53;8.60;64.60
40454;DHT22;26160;51.858;4.398;2024-03-29T06:54:19;8.60;54.20
40454;DHT22;26160;51.858;4.398;2024-03-29T06:56:48;8.60;49.80
40454;DHT22;26160;51.858;4.398;2024-03-29T06:59:15;8.60;48.70
40454;DHT22;26160;51.858;4.398;2024-03-29T07:01:41;8.70;47.90
40454;DHT22;26160;51.858;4.398;2024-03-29T07:04:07;8.70;45.60
40454;DHT22;26160;51.858;4.398;2024-03-29T07:06:33;8.70;40.10
40454;DHT22;26160;51.858;4.398;2024-03-29T07:08:59;8.60;48.40
40454;DHT22;26160;51.858;4.398;2024-03-29T07:11:25;8.60;48.70
40454;DHT22;26160;51.858;4.398;2024-03-29T07:13:52;8.70;46.00
40454;DHT22;26160;51.858;4.398;2024-03-29T07:16:18;8.70;44.90
40454;DHT22;26160;51.858;4.398;2024-03-29T07:18:44;8.80;39.60
40454;DHT22;26160;51.858;4.398;2024-03-29T07:21:10;8.80;40.30
40454;DHT22;26160;51.858;4.398;2024-03-29T07:23:36;8.80;33.20
40454;DHT22;26160;51.858;4.398;2024-03-29T07:26:04;8.80;31.30
40454;DHT22;26160;51.858;4.398;2024-03-29T07:28:31;8.80;30.30
40454;DHT22;26160;51.858;4.398;2024-03-29T07:30:57;8.80;29.40
40454;DHT22;26160;51.858;4.398;2024-03-29T07:33:24;8.80;32.10
40454;DHT22;26160;51.858;4.398;2024-03-29T07:35:55;8.80;29.20
40454;DHT22;26160;51.858;4.398;2024-03-29T07:38:24;8.80;27.50
40454;DHT22;26160;51.858;4.398;2024-03-29T07:40:51;8.80;35.00
40454;DHT22;26160;51.858;4.398;2024-03-29T07:43:18;8.90;28.70
40454;DHT22;26160;51.858;4.398;2024-03-29T07:45:44;9.00;22.70
40454;DHT22;26160;51.858;4.398;2024-03-29T07:48:12;9.20;19.40
40454;DHT22;26160;51.858;4.398;2024-03-29T07:50:40;9.30;11.10
40454;DHT22;26160;51.858;4.398;2024-03-29T07:53:07;9.40;2.20
40454;DHT22;26160;51.858;4.398;2024-03-29T07:55:35;9.40;1.00
40454;DHT22;26160;51.858;4.398;2024-03-29T07:58:01;9.30;1.00
40454;DHT22;26160;51.858;4.398;2024-03-29T08:00:31;9.20;5.10
40454;DHT22;26160;51.858;4.398;2024-03-29T08:02:57;9.20;7.20
40454;DHT22;26160;51.858;4.398;2024-03-29T08:05:24;9.30;3.30
40454;DHT22;26160;51.858;4.398;2024-03-29T08:07:50;9.20;6.00
40454;DHT22;26160;51.858;4.398;2024-03-29T08:10:16;9.20;4.90
40454;DHT22;26160;51.858;4.398;2024-03-29T08:12:42;9.30;5.20
40454;DHT22;26160;51.858;4.398;2024-03-29T08:15:08;9.40;1.00
40454;DHT22;26160;51.858;4.398;2024-03-29T08:17:35;9.40;1.00
40454;DHT22;26160;51.858;4.398;2024-03-29T08:20:02;9.50;1.00
40454;DHT22;26160;51.858;4.398;2024-03-29T08:22:29;9.60;1.00
40454;DHT22;26160;51.858;4.398;2024-03-29T08:24:55;9.70;1.00
40454;DHT22;26160;51.858;4.398;2024-03-29T08:27:21;9.80;1.00
40454;DHT22;26160;51.858;4.398;2024-03-29T08:29:47;9.80;1.00
40454;DHT22;26160;51.858;4.398;2024-03-29T08:32:16;9.80;1.00
40454;DHT22;26160;51.858;4.398;2024-03-29T08:34:42;9.90;1.00
40454;DHT22;26160;51.858;4.398;2024-03-29T08:37:08;9.90;1.00
40454;DHT22;26160;51.858;4.398;2024-03-29T08:39:35;10.00;1.00
40454;DHT22;26160;51.858;4.398;2024-03-29T08:42:04;10.00;1.00
40454;DHT22;26160;51.858;4.398;2024-03-29T08:44:34;10.00;1.00
40454;DHT22;26160;51.858;4.398;2024-03-29T08:47:01;10.00;1.00
40454;DHT22;26160;51.858;4.398;2024-03-29T08:49:29;10.00;1.00
40454;DHT22;26160;51.858;4.398;2024-03-29T08:51:58;10.30;1.00
40454;DHT22;26160;51.858;4.398;2024-03-29T08:54:26;10.60;1.00
40454;DHT22;26160;51.858;4.398;2024-03-29T08:56:53;10.60;1.00
40454;DHT22;26160;51.858;4.398;2024-03-29T08:59:19;10.60;1.00
40454;DHT22;26160;51.858;4.398;2024-03-29T09:01:46;10.80;1.00
40454;DHT22;26160;51.858;4.398;2024-03-29T09:04:15;10.70;1.00
40454;DHT22;26160;51.858;4.398;2024-03-29T09:06:42;10.80;1.00
40454;DHT22;26160;51.858;4.398;2024-03-29T09:09:08;10.70;1.00
40454;DHT22;26160;51.858;4.398;2024-03-29T09:11:35;10.60;1.00
40454;DHT22;26160;51.858;4.398;2024-03-29T09:14:02;10.80;1.00
40454;DHT22;26160;51.858;4.398;2024-03-29T09:16:30;10.90;1.00
40454;DHT22;26160;51.858;4.398;2024-03-29T09:18:56;10.90;1.00
40454;DHT22;26160;51.858;4.398;2024-03-29T09:21:23;10.90;1.00
40454;DHT22;26160;51.858;4.398;2024-03-29T09:23:49;10.90;1.00
40454;DHT22;26160;51.858;4.398;2024-03-29T09:26:18;10.80;1.00
40454;DHT22;26160;51.858;4.398;2024-03-29T09:28:45;10.70;1.00
40454;DHT22;26160;51.858;4.398;2024-03-29T09:31:11;10.70;1.00
40454;DHT22;26160;51.858;4.398;2024-03-29T09:33:37;10.70;1.00
40454;DHT22;26160;51.858;4.398;2024-03-29T09:36:03;10.80;1.00
40454;DHT22;26160;51.858;4.398;2024-03-29T09:38:30;10.90;1.00
40454;DHT22;26160;51.858;4.398;2024-03-29T09:41:16;10.90;1.00
40454;DHT22;26160;51.858;4.398;2024-03-29T09:43:44;10.80;1.00
40454;DHT22;26160;51.858;4.398;2024-03-29T09:46:14;10.70;1.00
40454;DHT22;26160;51.858;4.398;2024-03-29T09:48:41;10.70;1.00
40454;DHT22;26160;51.858;4.398;2024-03-29T09:51:08;10.90;1.00
40454;DHT22;26160;51.858;4.398;2024-03-29T09:53:35;11.10;1.00
40454;DHT22;26160;51.858;4.398;2024-03-29T09:56:05;11.40;1.00
40454;DHT22;26160;51.858;4.398;2024-03-29T09:58:33;11.60;1.00
40454;DHT22;26160;51.858;4.398;2024-03-29T10:01:00;11.90;1.00
40454;DHT22;26160;51.858;4.398;2024-03-29T10:03:27;12.10;1.00
40454;DHT22;26160;51.858;4.398;2024-03-29T10:05:59;12.30;1.00
40454;DHT22;26160;51.858;4.398;2024-03-29T10:08:30;12.30;1.00
40454;DHT22;26160;51.858;4.398;2024-03-29T10:10:59;12.20;1.00
40454;DHT22;26160;51.858;4.398;2024-03-29T10:13:26;11.90;1.00
40454;DHT22;26160;51.858;4.398;2024-03-29T10:15:53;12.00;1.00
40454;DHT22;26160;51.858;4.398;2024-03-29T10:18:25;12.20;1.00
40454;DHT22;26160;51.858;4.398;2024-03-29T10:20:59;12.00;1.00
40454;DHT22;26160;51.858;4.398;2024-03-29T10:23:26;12.00;1.00
40454;DHT22;26160;51.858;4.398;2024-03-29T10:25:52;12.20;1.00
40454;DHT22;26160;51.858;4.398;2024-03-29T10:28:22;12.40;1.00
40454;DHT22;26160;51.858;4.398;2024-03-29T10:30:49;12.40;1.00
40454;DHT22;26160;51.858;4.398;2024-03-29T10:33:16;12.40;1.00
40454;DHT22;26160;51.858;4.398;2024-03-29T10:35:43;12.70;1.00
40454;DHT22;26160;51.858;4.398;2024-03-29T10:38:12;12.60;1.00
40454;DHT22;26160;51.858;4.398;2024-03-29T10:40:39;12.70;1.00
40454;DHT22;26160;51.858;4.398;2024-03-29T10:43:10;12.70;1.00
40454;DHT22;26160;51.858;4.398;2024-03-29T10:45:39;12.90;1.00
40454;DHT22;26160;51.858;4.398;2024-03-29T10:48:06;13.10;1.00
40454;DHT22;26160;51.858;4.398;2024-03-29T10:50:36;13.10;1.00
40454;DHT22;26160;51.858;4.398;2024-03-29T10:53:03;12.90;1.00
40454;DHT22;26160;51.858;4.398;2024-03-29T10:55:29;12.70;1.00
40454;DHT22;26160;51.858;4.398;2024-03-29T10:58:00;12.70;1.00
40454;DHT22;26160;51.858;4.398;2024-03-29T11:00:33;12.90;1.00
40454;DHT22;26160;51.858;4.398;2024-03-29T11:03:09;12.60;1.00
40454;DHT22;26160;51.858;4.398;2024-03-29T11:05:48;12.70;1.00
40454;DHT22;26160;51.858;4.398;2024-03-29T11:08:22;12.70;1.00
40454;DHT22;26160;51.858;4.398;2024-03-29T11:10:54;13.20;1.00
40454;DHT22;26160;51.858;4.398;2024-03-29T11:13:40;13.60;99.90
40454;DHT22;26160;51.858;4.398;2024-03-29T11:16:11;13.60;99.90
40454;DHT22;26160;51.858;4.398;2024-03-29T11:18:38;13.90;1.00
40454;DHT22;26160;51.858;4.398;2024-03-29T11:21:05;13.90;40.00
40454;DHT22;26160;51.858;4.398;2024-03-29T11:23:34;13.70;99.90
40454;DHT22;26160;51.858;4.398;2024-03-29T11:26:01;13.60;99.90
40454;DHT22;26160;51.858;4.398;2024-03-29T11:28:32;13.70;99.90
40454;DHT22;26160;51.858;4.398;2024-03-29T11:31:05;14.10;99.90
40454;DHT22;26160;51.858;4.398;2024-03-29T11:33:33;14.70;1.00
40454;DHT22;26160;51.858;4.398;2024-03-29T11:36:15;14.80;1.00
40454;DHT22;26160;51.858;4.398;2024-03-29T11:38:44;14.20;1.00
40454;DHT22;26160;51.858;4.398;2024-03-29T11:41:12;13.80;88.60
40454;DHT22;26160;51.858;4.398;2024-03-29T11:43:40;13.80;1.00
40454;DHT22;26160;51.858;4.398;2024-03-29T11:46:07;13.80;1.00
40454;DHT22;26160;51.858;4.398;2024-03-29T11:48:35;13.70;1.00
40454;DHT22;26160;51.858;4.398;2024-03-29T11:51:03;13.70;1.00
40454;DHT22;26160;51.858;4.398;2024-03-29T11:53:30;13.80;30.00
40454;DHT22;26160;51.858;4.398;2024-03-29T11:56:01;14.20;1.00
40454;DHT22;26160;51.858;4.398;2024-03-29T11:58:28;13.90;1.00
40454;DHT22;26160;51.858;4.398;2024-03-29T12:00:56;14.30;1.00
40454;DHT22;26160;51.858;4.398;2024-03-29T12:03:24;14.40;1.00
40454;DHT22;26160;51.858;4.398;2024-03-29T12:05:52;14.70;99.90
40454;DHT22;26160;51.858;4.398;2024-03-29T12:08:21;14.20;1.00
40454;DHT22;26160;51.858;4.398;2024-03-29T12:10:47;14.20;1.00
40454;DHT22;26160;51.858;4.398;2024-03-29T12:13:16;14.50;99.90
40454;DHT22;26160;51.858;4.398;2024-03-29T12:15:43;14.30;1.00
40454;DHT22;26160;51.858;4.398;2024-03-29T12:18:10;14.20;99.90
40454;DHT22;26160;51.858;4.398;2024-03-29T12:20:41;14.10;1.00
40454;DHT22;26160;51.858;4.398;2024-03-29T12:23:09;14.10;99.90
40454;DHT22;26160;51.858;4.398;2024-03-29T12:25:37;14.20;99.90
40454;DHT22;26160;51.858;4.398;2024-03-29T12:28:03;14.20;1.00
40454;DHT22;26160;51.858;4.398;2024-03-29T12:30:30;14.30;11.30
40454;DHT22;26160;51.858;4.398;2024-03-29T12:35:28;14.90;1.00
40454;DHT22;26160;51.858;4.398;2024-03-29T12:38:01;14.70;1.00
40454;DHT22;26160;51.858;4.398;2024-03-29T12:40:28;15.00;1.00
40454;DHT22;26160;51.858;4.398;2024-03-29T12:42:58;15.10;99.90
40454;DHT22;26160;51.858;4.398;2024-03-29T12:45:25;15.40;1.00
40454;DHT22;26160;51.858;4.398;2024-03-29T12:47:52;14.60;1.00
40454;DHT22;26160;51.858;4.398;2024-03-29T12:50:29;14.60;99.90
40454;DHT22;26160;51.858;4.398;2024-03-29T12:52:57;14.70;1.00
40454;DHT22;26160;51.858;4.398;2024-03-29T12:55:25;14.60;1.00
40454;DHT22;26160;51.858;4.398;2024-03-29T12:57:54;14.70;1.00
40454;DHT22;26160;51.858;4.398;2024-03-29T13:00:20;14.90;99.90
40454;DHT22;26160;51.858;4.398;2024-03-29T13:02:46;14.70;1.00
40454;DHT22;26160;51.858;4.398;2024-03-29T13:05:13;14.80;1.00
40454;DHT22;26160;51.858;4.398;2024-03-29T13:07:39;15.20;1.00
40454;DHT22;26160;51.858;4.398;2024-03-29T13:10:05;15.10;99.90
40454;DHT22;26160;51.858;4.398;2024-03-29T13:12:40;15.10;1.00
40454;DHT22;26160;51.858;4.398;2024-03-29T13:17:41;15.10;99.90
40454;DHT22;26160;51.858;4.398;2024-03-29T13:20:08;15.10;1.00
40454;DHT22;26160;51.858;4.398;2024-03-29T13:22:35;14.80;99.90
40454;DHT22;26160;51.858;4.398;2024-03-29T13:25:03;14.70;1.00
40454;DHT22;26160;51.858;4.398;2024-03-29T13:27:31;14.90;1.00
40454;DHT22;26160;51.858;4.398;2024-03-29T13:29:57;15.10;99.90
40454;DHT22;26160;51.858;4.398;2024-03-29T13:32:23;14.80;99.90
40454;DHT22;26160;51.858;4.398;2024-03-29T13:34:49;14.60;1.00
40454;DHT22;26160;51.858;4.398;2024-03-29T13:37:16;14.70;1.00
40454;DHT22;26160;51.858;4.398;2024-03-29T13:39:42;14.80;16.90
40454;DHT22;26160;51.858;4.398;2024-03-29T13:42:09;15.00;1.00
40454;DHT22;26160;51.858;4.398;2024-03-29T13:44:35;15.10;1.00
40454;DHT22;26160;51.858;4.398;2024-03-29T13:47:01;15.30;99.90
40454;DHT22;26160;51.858;4.398;2024-03-29T13:49:29;15.30;1.00
40454;DHT22;26160;51.858;4.398;2024-03-29T13:51:56;15.40;1.00
40454;DHT22;26160;51.858;4.398;2024-03-29T13:54:23;15.70;1.00
40454;DHT22;26160;51.858;4.398;2024-03-29T13:56:49;15.50;7.40
40454;DHT22;26160;51.858;4.398;2024-03-29T13:59:16;15.20;1.00
40454;DHT22;26160;51.858;4.398;2024-03-29T14:01:42;15.10;1.00
40454;DHT22;26160;51.858;4.398;2024-03-29T14:04:09;14.90;1.00
40454;DHT22;26160;51.858;4.398;2024-03-29T14:06:35;14.90;99.90
40454;DHT22;26160;51.858;4.398;2024-03-29T14:09:01;15.00;1.00
40454;DHT22;26160;51.858;4.398;2024-03-29T14:11:28;15.00;1.00
40454;DHT22;26160;51.858;4.398;2024-03-29T14:13:54;15.20;99.90
40454;DHT22;26160;51.858;4.398;2024-03-29T14:16:22;15.40;1.00
40454;DHT22;26160;51.858;4.398;2024-03-29T14:18:48;15.60;99.90
40454;DHT22;26160;51.858;4.398;2024-03-29T14:21:15;15.70;99.90
40454;DHT22;26160;51.858;4.398;2024-03-29T14:23:41;15.50;99.90
40454;DHT22;26160;51.858;4.398;2024-03-29T14:26:07;15.50;99.90
40454;DHT22;26160;51.858;4.398;2024-03-29T14:28:33;15.20;1.00
40454;DHT22;26160;51.858;4.398;2024-03-29T14:30:59;15.00;99.90
40454;DHT22;26160;51.858;4.398;2024-03-29T14:33:25;15.10;99.90
40454;DHT22;26160;51.858;4.398;2024-03-29T14:35:51;15.10;99.90
40454;DHT22;26160;51.858;4.398;2024-03-29T14:38:18;15.20;39.30
40454;DHT22;26160;51.858;4.398;2024-03-29T14:40:44;15.00;99.90
40454;DHT22;26160;51.858;4.398;2024-03-29T14:43:20;15.00;1.00
40454;DHT22;26160;51.858;4.398;2024-03-29T14:45:46;14.90;1.00
40454;DHT22;26160;51.858;4.398;2024-03-29T14:48:18;14.80;1.00
40454;DHT22;26160;51.858;4.398;2024-03-29T14:50:44;15.00;1.00
40454;DHT22;26160;51.858;4.398;2024-03-29T14:53:11;15.20;1.00
40454;DHT22;26160;51.858;4.398;2024-03-29T14:55:44;15.20;99.90
40454;DHT22;26160;51.858;4.398;2024-03-29T14:58:10;15.00;99.90
40454;DHT22;26160;51.858;4.398;2024-03-29T15:00:36;14.80;1.00
40454;DHT22;26160;51.858;4.398;2024-03-29T15:03:02;14.70;1.00
40454;DHT22;26160;51.858;4.398;2024-03-29T15:05:28;14.80;33.90
40454;DHT22;26160;51.858;4.398;2024-03-29T15:08:20;14.80;1.00
40454;DHT22;26160;51.858;4.398;2024-03-29T15:10:46;14.80;1.00
40454;DHT22;26160;51.858;4.398;2024-03-29T15:13:21;14.90;99.90
40454;DHT22;26160;51.858;4.398;2024-03-29T15:15:57;14.90;1.00
40454;DHT22;26160;51.858;4.398;2024-03-29T15:18:24;14.90;1.00
40454;DHT22;26160;51.858;4.398;2024-03-29T15:20:56;15.00;1.00
40454;DHT22;26160;51.858;4.398;2024-03-29T15:23:23;15.00;1.00
40454;DHT22;26160;51.858;4.398;2024-03-29T15:25:59;15.00;1.00
40454;DHT22;26160;51.858;4.398;2024-03-29T15:28:26;15.00;1.00
40454;DHT22;26160;51.858;4.398;2024-03-29T15:31:13;15.00;14.10
40454;DHT22;26160;51.858;4.398;2024-03-29T15:33:39;15.20;99.90
40454;DHT22;26160;51.858;4.398;2024-03-29T15:36:06;15.10;1.00
40454;DHT22;26160;51.858;4.398;2024-03-29T15:38:35;14.90;1.00
40454;DHT22;26160;51.858;4.398;2024-03-29T15:41:02;14.80;1.00
40454;DHT22;26160;51.858;4.398;2024-03-29T15:43:34;14.70;99.90
40454;DHT22;26160;51.858;4.398;2024-03-29T15:46:05;14.70;99.90
40454;DHT22;26160;51.858;4.398;2024-03-29T15:48:32;14.90;1.00
40454;DHT22;26160;51.858;4.398;2024-03-29T15:58:48;15.00;1.00
40454;DHT22;26160;51.858;4.398;2024-03-29T16:32:58;14.20;1.00
40454;DHT22;26160;51.858;4.398;2024-03-29T19:19:47;12.50;1.00